Time;durP1;ratioP1;P1;durP2;ratioP2;P2;SDS_P1;SDS_P2;PMS_P1;PMS_P2;Temp;Humidity;BMP_temperature;BMP_pressure;BME280_temperature;BME280_humidity;BME280_pressure;Samples;Min_cycle;Max_cycle;Signal;HPM_P1;HPM_P2
2024/02/05 00:00:33;;;;;;;1.00;0.57;;;9.40;99.90;;;;;;4221466;28;20239;-80
2024/02/05 00:02:35;;;;;;;1.37;0.50;;;9.40;99.90;;;;;;4212789;28;20254;-80
2024/02/05 00:04:37;;;;;;;1.47;0.40;;;9.40;99.90;;;;;;4212002;28;20196;-78
2024/02/05 00:06:39;;;;;;;1.00;0.70;;;9.50;99.90;;;;;;4193883;28;20311;-80
2024/02/05 00:08:41;;;;;;;0.67;0.50;;;9.50;99.90;;;;;;4209238;28;20861;-79
2024/02/05 00:10:43;;;;;;;0.57;0.50;;;9.40;99.90;;;;;;4184506;28;20726;-79
2024/02/05 00:12:45;;;;;;;0.60;0.50;;;9.50;99.90;;;;;;4208973;28;20211;-78
2024/02/05 00:14:47;;;;;;;0.73;0.50;;;9.40;99.90;;;;;;4191366;28;20255;-79
2024/02/05 00:16:51;;;;;;;0.63;0.63;;;9.40;99.90;;;;;;4192961;28;20209;-81
2024/02/05 00:18:53;;;;;;;1.33;0.50;;;9.40;99.90;;;;;;4210656;28;20210;-81
2024/02/05 00:20:55;;;;;;;0.40;0.40;;;9.40;99.90;;;;;;4208861;28;20227;-81
2024/02/05 00:22:57;;;;;;;0.43;0.43;;;9.40;99.90;;;;;;4189156;28;20201;-82
2024/02/05 00:24:59;;;;;;;0.50;0.50;;;9.40;99.90;;;;;;4211048;28;20203;-81
2024/02/05 00:27:01;;;;;;;0.57;0.53;;;9.50;99.90;;;;;;4208638;28;20223;-80
2024/02/05 00:29:05;;;;;;;0.50;0.47;;;9.40;99.90;;;;;;4208295;28;20599;-79
2024/02/05 00:31:07;;;;;;;0.40;0.40;;;9.40;99.90;;;;;;4209459;28;20233;-81
2024/02/05 00:33:11;;;;;;;0.50;0.50;;;9.40;99.90;;;;;;4192714;28;20219;-79
2024/02/05 00:35:13;;;;;;;0.30;0.30;;;9.40;99.90;;;;;;4207956;28;20233;-78
2024/02/05 00:37:15;;;;;;;0.40;0.40;;;9.40;99.90;;;;;;4208612;28;20563;-79
2024/02/05 00:39:17;;;;;;;1.37;0.50;;;9.40;99.90;;;;;;4192718;28;20825;-79
2024/02/05 00:41:19;;;;;;;1.47;0.40;;;9.40;99.90;;;;;;4208081;28;20209;-79
2024/02/05 00:43:21;;;;;;;0.60;0.50;;;9.40;99.90;;;;;;4190906;28;20282;-79
2024/02/05 00:45:23;;;;;;;0.60;0.40;;;9.40;99.90;;;;;;4190899;28;20667;-78
2024/02/05 00:47:26;;;;;;;1.07;0.50;;;9.40;99.90;;;;;;4207463;28;20212;-79
2024/02/05 00:49:29;;;;;;;1.27;0.47;;;9.40;99.90;;;;;;4188686;28;20227;-80
2024/02/05 00:51:31;;;;;;;0.73;0.47;;;9.40;99.90;;;;;;4213669;28;20270;-83
2024/02/05 00:53:32;;;;;;;0.40;0.40;;;9.40;99.90;;;;;;4210332;28;20205;-80
2024/02/05 00:55:34;;;;;;;0.40;0.40;;;9.40;99.90;;;;;;4212886;28;21667;-80
2024/02/05 00:57:36;;;;;;;2.00;0.50;;;9.40;99.90;;;;;;4210107;28;20202;-82
2024/02/05 00:59:38;;;;;;;0.50;0.50;;;9.40;99.90;;;;;;4211190;28;20307;-80
2024/02/05 01:01:43;;;;;;;0.40;0.40;;;9.40;99.90;;;;;;4196710;28;20209;-80
2024/02/05 01:03:45;;;;;;;0.50;0.47;;;9.40;99.90;;;;;;4190226;28;20209;-79
2024/02/05 01:05:49;;;;;;;0.80;0.50;;;9.40;99.90;;;;;;4207138;28;21057;-78
2024/02/05 01:07:51;;;;;;;1.30;0.47;;;9.40;99.90;;;;;;4211443;28;20260;-79
2024/02/05 01:09:53;;;;;;;0.50;0.50;;;9.40;99.90;;;;;;4210316;28;20227;-79
2024/02/05 01:11:55;;;;;;;0.60;0.50;;;9.40;99.90;;;;;;4212558;28;20223;-78
2024/02/05 01:13:56;;;;;;;0.40;0.40;;;9.40;99.90;;;;;;4209218;28;20278;-79
2024/02/05 01:16:02;;;;;;;0.93;0.50;;;9.40;99.90;;;;;;4214979;28;20197;-79
2024/02/05 01:18:04;;;;;;;0.40;0.40;;;9.40;99.90;;;;;;4211401;28;20266;-82
2024/02/05 01:20:10;;;;;;;0.63;0.50;;;9.40;99.90;;;;;;4211862;28;20227;-84
2024/02/05 01:22:12;;;;;;;0.80;0.43;;;9.30;99.90;;;;;;4211258;28;20213;-79
2024/02/05 01:24:17;;;;;;;0.47;0.47;;;9.30;99.90;;;;;;4211998;28;20205;-80
2024/02/05 01:26:20;;;;;;;0.63;0.60;;;9.30;99.90;;;;;;4188542;28;20208;-79
2024/02/05 01:28:22;;;;;;;0.47;0.47;;;9.40;99.90;;;;;;4219468;28;20216;-79
2024/02/05 01:30:24;;;;;;;0.40;0.40;;;9.40;99.90;;;;;;4209513;28;20235;-81
2024/02/05 01:32:26;;;;;;;1.87;0.53;;;9.40;99.90;;;;;;4213556;28;20201;-81
2024/02/05 01:34:28;;;;;;;0.80;0.50;;;9.30;99.90;;;;;;4211901;28;20227;-81
2024/02/05 01:36:30;;;;;;;2.03;0.40;;;9.70;99.90;;;;;;4210664;28;20766;-79
2024/02/05 01:38:33;;;;;;;1.03;0.50;;;9.30;99.90;;;;;;4196314;28;20204;-80
2024/02/05 01:40:36;;;;;;;0.73;0.60;;;9.30;99.90;;;;;;4217330;28;20220;-79
2024/02/05 01:42:41;;;;;;;0.30;0.30;;;9.30;99.90;;;;;;4213340;28;20219;-81
2024/02/05 01:44:44;;;;;;;0.80;0.60;;;9.30;99.90;;;;;;4194942;28;20296;-79
2024/02/05 01:46:45;;;;;;;0.90;0.50;;;9.30;99.90;;;;;;4213305;28;20213;-78
2024/02/05 01:48:51;;;;;;;0.83;0.63;;;9.30;99.90;;;;;;4210404;28;20207;-78
2024/02/05 01:50:53;;;;;;;0.60;0.60;;;9.50;99.90;;;;;;4209406;28;20338;-79
2024/02/05 01:52:55;;;;;;;0.60;0.60;;;9.30;99.90;;;;;;4211254;28;20207;-80
2024/02/05 01:54:59;;;;;;;0.53;0.53;;;9.30;99.90;;;;;;4211230;28;20219;-80
2024/02/05 01:57:04;;;;;;;0.60;0.60;;;9.30;99.90;;;;;;4192992;28;20857;-82
2024/02/05 01:59:05;;;;;;;1.47;0.67;;;9.30;99.90;;;;;;4209247;28;20212;-80
2024/02/05 02:01:08;;;;;;;0.50;0.50;;;9.30;99.90;;;;;;4191452;28;20227;-82
2024/02/05 02:03:13;;;;;;;2.80;0.77;;;9.30;99.90;;;;;;4212835;28;20246;-80
2024/02/05 02:05:15;;;;;;;3.70;0.70;;;9.30;99.90;;;;;;4209274;28;20234;-80
2024/02/05 02:07:17;;;;;;;1.13;0.50;;;9.30;99.90;;;;;;4210588;28;20214;-81
2024/02/05 02:09:19;;;;;;;1.40;0.70;;;9.30;99.90;;;;;;4207671;28;20208;-80
2024/02/05 02:11:23;;;;;;;1.27;0.60;;;9.30;99.90;;;;;;4210633;28;20201;-80
2024/02/05 02:13:25;;;;;;;1.17;0.60;;;9.30;99.90;;;;;;4196779;28;20209;-80
2024/02/05 02:15:29;;;;;;;1.17;0.60;;;9.30;99.90;;;;;;4193296;28;20278;-79
2024/02/05 02:17:34;;;;;;;0.83;0.50;;;9.30;99.90;;;;;;4199017;28;20221;-81
2024/02/05 02:19:43;;;;;;;0.60;0.50;;;9.30;99.90;;;;;;4215525;28;20497;-81
2024/02/05 02:21:48;;;;;;;1.90;0.70;;;9.30;99.90;;;;;;4220271;28;20199;-80
2024/02/05 02:23:53;;;;;;;0.87;0.67;;;9.30;99.90;;;;;;4198968;28;20201;-80
2024/02/05 02:25:54;;;;;;;0.67;0.53;;;9.30;99.90;;;;;;4212469;28;20191;-81
2024/02/05 02:27:56;;;;;;;2.00;0.60;;;9.30;99.90;;;;;;4212799;28;20207;-81
2024/02/05 02:29:58;;;;;;;1.60;0.50;;;9.20;99.90;;;;;;4214676;28;21058;-81
2024/02/05 02:32:08;;;;;;;1.30;0.70;;;9.20;99.90;;;;;;4204708;28;20688;-80
2024/02/05 02:34:16;;;;;;;0.80;0.60;;;9.30;99.90;;;;;;4206204;28;20837;-79
2024/02/05 02:36:24;;;;;;;1.20;0.50;;;9.20;99.90;;;;;;4208266;28;20854;-81
2024/02/05 02:38:30;;;;;;;0.70;0.57;;;9.20;99.90;;;;;;4205048;28;20777;-80
2024/02/05 02:40:38;;;;;;;1.33;0.60;;;9.40;99.90;;;;;;4211699;28;20222;-81
2024/02/05 02:42:41;;;;;;;1.27;0.60;;;9.50;99.90;;;;;;4210398;28;20199;-79
2024/02/05 02:44:45;;;;;;;2.30;0.80;;;9.20;99.90;;;;;;4185321;28;20208;-80
2024/02/05 02:46:47;;;;;;;0.90;0.77;;;9.20;99.90;;;;;;4208077;28;20202;-79
2024/02/05 02:48:50;;;;;;;1.07;0.60;;;9.10;99.90;;;;;;4211412;28;20203;-80
2024/02/05 02:50:52;;;;;;;2.13;0.63;;;9.20;99.90;;;;;;4208515;28;20267;-80
2024/02/05 02:52:54;;;;;;;2.10;1.10;;;9.20;99.90;;;;;;4214014;28;20207;-80
2024/02/05 02:54:55;;;;;;;1.97;1.00;;;9.10;99.90;;;;;;4211657;28;20230;-81
2024/02/05 02:56:58;;;;;;;1.57;0.97;;;9.10;99.90;;;;;;4207791;28;20700;-79
2024/02/05 02:59:01;;;;;;;2.60;0.90;;;9.10;99.90;;;;;;4209359;28;20199;-81
2024/02/05 03:01:04;;;;;;;0.93;0.80;;;9.10;99.90;;;;;;4207885;28;20230;-80
2024/02/05 03:03:06;;;;;;;0.87;0.60;;;9.10;99.90;;;;;;4212469;28;20205;-80
2024/02/05 03:05:09;;;;;;;1.00;0.70;;;9.10;99.90;;;;;;4207009;28;20666;-80
2024/02/05 03:07:11;;;;;;;0.90;0.70;;;9.10;99.90;;;;;;4192115;28;20268;-78
2024/02/05 03:09:13;;;;;;;1.27;0.80;;;9.10;99.90;;;;;;4208874;28;20295;-79
2024/02/05 03:11:15;;;;;;;0.70;0.70;;;9.10;99.90;;;;;;4211317;28;20212;-81
2024/02/05 03:13:19;;;;;;;1.33;1.00;;;9.10;99.90;;;;;;4210506;28;20206;-81
2024/02/05 03:15:21;;;;;;;0.90;0.70;;;9.10;99.90;;;;;;4209883;28;20223;-80
2024/02/05 03:17:22;;;;;;;1.20;0.80;;;9.20;99.90;;;;;;4209408;28;20254;-80
2024/02/05 03:19:24;;;;;;;0.90;0.80;;;9.20;99.90;;;;;;4210978;28;20266;-79
2024/02/05 03:21:26;;;;;;;2.13;0.90;;;9.20;99.90;;;;;;4211424;28;20207;-79
2024/02/05 03:23:28;;;;;;;2.73;1.63;;;9.20;99.90;;;;;;4211472;28;20718;-80
2024/02/05 03:25:29;;;;;;;1.90;0.90;;;9.20;99.90;;;;;;4210659;28;20232;-81
2024/02/05 03:27:31;;;;;;;1.00;0.80;;;9.10;99.90;;;;;;4211310;28;20653;-80
2024/02/05 03:29:34;;;;;;;0.97;0.70;;;9.10;99.90;;;;;;4206968;28;20198;-79
2024/02/05 03:31:41;;;;;;;1.03;0.90;;;9.20;99.90;;;;;;4211725;28;20211;-79
2024/02/05 03:33:43;;;;;;;1.00;0.80;;;9.10;99.90;;;;;;4194731;28;20719;-79
2024/02/05 03:35:45;;;;;;;1.63;0.80;;;9.10;99.90;;;;;;4212146;28;20495;-78
2024/02/05 03:37:47;;;;;;;1.30;0.90;;;9.20;99.90;;;;;;4194206;28;20204;-79
2024/02/05 03:39:49;;;;;;;3.73;0.90;;;9.20;99.90;;;;;;4212378;28;20683;-79
2024/02/05 03:41:51;;;;;;;5.50;0.93;;;9.20;99.90;;;;;;4212047;28;20419;-79
2024/02/05 03:43:53;;;;;;;1.30;0.83;;;9.10;99.90;;;;;;4210745;28;20202;-79
2024/02/05 03:45:57;;;;;;;1.00;0.90;;;9.10;99.90;;;;;;4211827;28;20637;-79
2024/02/05 03:47:59;;;;;;;2.63;0.90;;;9.20;99.90;;;;;;4192909;28;20200;-80
2024/02/05 03:50:00;;;;;;;1.47;1.00;;;9.20;99.90;;;;;;4207976;28;20235;-80
2024/02/05 03:52:02;;;;;;;0.97;0.80;;;9.20;99.90;;;;;;4191859;28;20208;-80
2024/02/05 03:54:06;;;;;;;2.50;1.17;;;9.20;99.90;;;;;;4209141;28;20192;-81
2024/02/05 03:56:09;;;;;;;1.33;0.93;;;9.20;99.90;;;;;;4208319;28;20300;-81
2024/02/05 03:58:11;;;;;;;1.00;0.90;;;9.20;99.90;;;;;;4192264;28;20207;-79
2024/02/05 04:00:13;;;;;;;3.63;0.90;;;9.20;99.90;;;;;;4211084;28;20698;-79
2024/02/05 04:02:16;;;;;;;1.27;0.90;;;9.20;99.90;;;;;;4211676;28;20703;-79
2024/02/05 04:04:18;;;;;;;2.27;1.00;;;9.20;99.90;;;;;;4211478;28;20208;-78
2024/02/05 04:06:19;;;;;;;1.33;0.90;;;9.20;99.90;;;;;;4209174;28;20479;-78
2024/02/05 04:08:21;;;;;;;1.10;0.90;;;9.20;99.90;;;;;;4192200;28;21549;-78
2024/02/05 04:10:23;;;;;;;2.10;1.00;;;9.20;99.90;;;;;;4206256;28;20714;-78
2024/02/05 04:12:24;;;;;;;0.80;0.70;;;9.20;99.90;;;;;;4211420;28;20207;-80
2024/02/05 04:14:26;;;;;;;1.50;1.17;;;9.20;99.90;;;;;;4208617;28;20679;-78
2024/02/05 04:16:28;;;;;;;1.43;1.00;;;9.20;99.90;;;;;;4213064;28;20755;-79
2024/02/05 04:18:31;;;;;;;1.33;0.90;;;9.20;99.90;;;;;;4186168;28;20294;-78
2024/02/05 04:20:32;;;;;;;3.17;1.00;;;9.20;99.90;;;;;;4191402;28;20224;-81
2024/02/05 04:22:33;;;;;;;3.57;0.90;;;9.20;99.90;;;;;;4205747;28;20200;-79
2024/02/05 04:24:35;;;;;;;3.20;0.90;;;9.30;99.90;;;;;;4205476;28;20231;-79
2024/02/05 04:26:37;;;;;;;2.97;0.90;;;9.20;99.90;;;;;;4211547;28;20212;-78
2024/02/05 04:28:39;;;;;;;1.70;1.10;;;9.20;99.90;;;;;;4212404;28;20646;-79
2024/02/05 04:30:42;;;;;;;2.23;0.80;;;9.20;99.90;;;;;;4210652;28;20216;-79
2024/02/05 04:32:44;;;;;;;2.87;0.90;;;9.20;99.90;;;;;;4193115;28;20212;-79
2024/02/05 04:34:47;;;;;;;1.30;0.90;;;9.20;99.90;;;;;;4209703;28;20235;-78
2024/02/05 04:36:52;;;;;;;1.23;0.90;;;9.20;99.90;;;;;;4195704;28;20206;-79
2024/02/05 04:38:54;;;;;;;1.77;0.97;;;9.50;99.90;;;;;;4209364;28;20923;-78
2024/02/05 04:40:56;;;;;;;3.00;0.80;;;9.30;99.90;;;;;;4197896;28;20696;-77
2024/02/05 04:42:57;;;;;;;2.83;1.00;;;9.30;99.90;;;;;;4213820;28;20258;-78
2024/02/05 04:44:59;;;;;;;6.57;1.10;;;9.30;99.90;;;;;;4217375;28;20279;-78
2024/02/05 04:47:01;;;;;;;2.97;0.90;;;9.30;99.90;;;;;;4203540;28;20681;-78
2024/02/05 04:49:02;;;;;;;2.07;0.67;;;9.30;99.90;;;;;;4215570;28;20265;-77
2024/02/05 04:51:11;;;;;;;1.43;0.83;;;9.30;99.90;;;;;;4216401;28;20638;-79
2024/02/05 04:53:13;;;;;;;1.53;0.90;;;9.30;99.90;;;;;;4198114;28;20205;-79
2024/02/05 04:55:15;;;;;;;1.53;0.93;;;9.30;99.90;;;;;;4213541;28;20315;-79
2024/02/05 04:57:18;;;;;;;1.70;0.93;;;9.30;99.90;;;;;;4217166;28;20668;-78
2024/02/05 04:59:22;;;;;;;0.80;0.70;;;9.30;99.90;;;;;;4214013;28;20270;-78
2024/02/05 05:01:24;;;;;;;2.10;0.80;;;9.30;99.90;;;;;;4211814;28;20902;-78
2024/02/05 05:03:26;;;;;;;1.37;0.80;;;9.30;99.90;;;;;;4193951;28;20213;-79
2024/02/05 05:05:28;;;;;;;1.47;0.70;;;9.30;99.90;;;;;;4208680;28;20260;-81
2024/02/05 05:07:31;;;;;;;3.50;0.83;;;9.30;99.90;;;;;;4208363;28;20212;-80
2024/02/05 05:09:33;;;;;;;3.97;0.90;;;9.30;99.90;;;;;;4210178;28;20623;-78
2024/02/05 05:11:35;;;;;;;1.80;1.00;;;9.40;99.90;;;;;;4210014;28;20208;-78
2024/02/05 05:13:37;;;;;;;2.63;1.00;;;9.40;99.90;;;;;;4209477;28;20672;-78
2024/02/05 05:15:39;;;;;;;1.10;0.93;;;9.30;99.90;;;;;;4212864;28;20221;-78
2024/02/05 05:17:40;;;;;;;3.20;0.90;;;9.30;99.90;;;;;;4208675;28;20212;-77
2024/02/05 05:19:42;;;;;;;3.33;1.13;;;9.30;99.90;;;;;;4184872;28;20215;-77
2024/02/05 05:21:43;;;;;;;2.20;1.10;;;9.30;99.90;;;;;;4195622;28;20209;-77
2024/02/05 05:23:47;;;;;;;4.10;1.07;;;9.30;99.90;;;;;;4210113;28;20207;-78
2024/02/05 05:25:49;;;;;;;6.53;1.27;;;9.30;99.90;;;;;;4210733;28;20215;-79
2024/02/05 05:27:51;;;;;;;3.50;1.40;;;9.30;99.90;;;;;;4191513;28;20216;-82
2024/02/05 05:29:52;;;;;;;2.23;1.20;;;9.30;99.90;;;;;;4196504;28;20268;-79
2024/02/05 05:31:53;;;;;;;2.07;1.10;;;9.30;99.90;;;;;;4210296;28;20570;-78
2024/02/05 05:33:57;;;;;;;1.63;1.20;;;9.30;99.90;;;;;;4204496;28;20216;-77
2024/02/05 05:35:59;;;;;;;3.23;1.20;;;9.30;99.90;;;;;;4212609;28;20214;-79
2024/02/05 05:38:01;;;;;;;2.03;1.30;;;9.30;99.90;;;;;;4209650;28;20228;-78
2024/02/05 05:40:05;;;;;;;2.10;1.40;;;9.30;99.90;;;;;;4195561;28;20319;-80
2024/02/05 05:42:08;;;;;;;2.10;1.60;;;9.30;99.90;;;;;;4214385;28;20227;-79
2024/02/05 05:44:10;;;;;;;3.67;2.00;;;9.30;99.90;;;;;;4195838;28;20237;-79
2024/02/05 05:46:12;;;;;;;3.70;1.60;;;9.30;99.90;;;;;;4213753;28;20197;-78
2024/02/05 05:48:14;;;;;;;2.37;1.60;;;9.20;99.90;;;;;;4211870;28;20196;-80
2024/02/05 05:50:16;;;;;;;2.53;1.53;;;9.30;99.90;;;;;;4212705;28;20236;-80
2024/02/05 05:52:19;;;;;;;2.07;1.57;;;9.30;99.90;;;;;;4211656;28;20198;-80
2024/02/05 05:54:22;;;;;;;3.73;1.47;;;9.30;99.90;;;;;;4192048;28;20639;-80
2024/02/05 05:56:29;;;;;;;5.07;1.63;;;9.30;99.90;;;;;;4194204;28;20674;-80
2024/02/05 05:58:31;;;;;;;5.67;1.70;;;9.30;99.90;;;;;;4210840;28;20238;-80
2024/02/05 06:00:33;;;;;;;3.30;1.60;;;9.30;99.90;;;;;;4195588;28;20802;-80
2024/02/05 06:02:34;;;;;;;3.07;1.77;;;9.30;99.90;;;;;;4217536;28;20274;-80
2024/02/05 06:04:37;;;;;;;2.23;1.50;;;9.40;99.90;;;;;;4195540;28;20224;-80
2024/02/05 06:06:39;;;;;;;2.60;1.70;;;9.30;99.90;;;;;;4196878;28;20200;-79
2024/02/05 06:08:41;;;;;;;3.50;1.40;;;9.30;99.90;;;;;;4197969;28;20213;-80
2024/02/05 06:10:46;;;;;;;5.63;1.40;;;9.30;99.90;;;;;;4216401;28;20219;-81
2024/02/05 06:12:48;;;;;;;5.17;1.43;;;9.30;99.90;;;;;;4217284;28;20215;-81
2024/02/05 06:14:50;;;;;;;3.67;1.47;;;9.30;99.90;;;;;;4217016;28;20204;-80
2024/02/05 06:16:52;;;;;;;2.57;1.33;;;9.30;99.90;;;;;;4200935;28;20209;-80
2024/02/05 06:18:54;;;;;;;3.60;1.60;;;9.30;99.90;;;;;;4211133;28;20250;-80
2024/02/05 06:20:56;;;;;;;2.63;1.80;;;9.30;99.90;;;;;;4215556;28;20733;-81
2024/02/05 06:22:58;;;;;;;2.50;1.60;;;9.30;99.90;;;;;;4214173;28;20247;-81
2024/02/05 06:24:59;;;;;;;4.40;1.90;;;9.30;99.90;;;;;;4213029;28;20284;-80
2024/02/05 06:27:05;;;;;;;4.37;1.87;;;9.40;99.90;;;;;;4211879;28;20193;-78
2024/02/05 06:29:07;;;;;;;5.63;2.30;;;9.30;99.90;;;;;;4202628;28;20212;-78
2024/02/05 06:31:10;;;;;;;5.23;2.13;;;9.40;99.90;;;;;;4194674;28;20248;-78
2024/02/05 06:33:12;;;;;;;3.83;2.10;;;9.40;99.90;;;;;;4191758;28;20248;-77
2024/02/05 06:35:14;;;;;;;4.80;2.30;;;9.40;99.90;;;;;;4210954;28;20230;-77
2024/02/05 06:37:15;;;;;;;4.07;2.40;;;9.30;99.90;;;;;;4210292;28;20221;-76
2024/02/05 06:39:17;;;;;;;4.57;2.27;;;9.40;99.90;;;;;;4192745;28;20723;-77
2024/02/05 06:41:19;;;;;;;3.90;2.40;;;9.40;99.90;;;;;;4210753;28;20209;-77
2024/02/05 06:43:21;;;;;;;4.57;2.30;;;9.40;99.90;;;;;;4206111;28;20214;-77
2024/02/05 06:45:24;;;;;;;5.50;2.33;;;9.40;99.90;;;;;;4203541;28;20638;-80
2024/02/05 06:47:26;;;;;;;6.63;2.80;;;9.40;99.90;;;;;;4194260;28;20200;-77
2024/02/05 06:49:28;;;;;;;5.63;3.00;;;9.40;99.90;;;;;;4191842;28;20217;-76
2024/02/05 06:51:30;;;;;;;9.57;2.80;;;9.40;99.90;;;;;;4213735;28;20205;-77
2024/02/05 06:53:32;;;;;;;7.13;3.10;;;9.40;99.90;;;;;;4212777;28;20208;-76
2024/02/05 06:55:36;;;;;;;6.67;2.73;;;9.40;99.90;;;;;;4209843;28;20786;-77
2024/02/05 06:57:38;;;;;;;8.90;3.63;;;9.50;99.90;;;;;;4206486;28;20251;-77
2024/02/05 06:59:40;;;;;;;8.83;3.43;;;9.40;99.90;;;;;;4209804;28;20302;-78
2024/02/05 07:01:43;;;;;;;6.00;2.97;;;9.40;99.90;;;;;;4209698;28;20701;-77
2024/02/05 07:03:45;;;;;;;13.00;3.87;;;9.40;99.90;;;;;;4193323;28;20942;-78
2024/02/05 07:05:47;;;;;;;9.57;4.07;;;9.40;99.90;;;;;;4210218;28;20320;-77
2024/02/05 07:07:50;;;;;;;10.90;3.00;;;9.40;99.90;;;;;;4193890;28;20289;-77
2024/02/05 07:09:52;;;;;;;5.37;2.87;;;9.40;99.90;;;;;;4211170;28;20842;-80
2024/02/05 07:11:54;;;;;;;9.00;3.53;;;9.40;99.90;;;;;;4213144;28;20212;-80
2024/02/05 07:13:58;;;;;;;8.13;3.67;;;9.50;99.90;;;;;;4221738;28;20536;-79
2024/02/05 07:16:00;;;;;;;5.87;3.53;;;9.40;99.90;;;;;;4224778;28;20251;-80
2024/02/05 07:18:03;;;;;;;8.67;3.40;;;9.40;99.90;;;;;;4219606;28;20727;-79
2024/02/05 07:20:07;;;;;;;10.80;4.17;;;9.50;99.90;;;;;;4203982;28;20229;-79
2024/02/05 07:22:09;;;;;;;10.97;5.00;;;9.50;99.90;;;;;;4224062;28;20348;-79
2024/02/05 07:24:11;;;;;;;11.00;3.80;;;9.50;99.90;;;;;;4221067;28;20231;-78
2024/02/05 07:26:13;;;;;;;9.43;3.40;;;9.50;99.90;;;;;;4193662;28;20251;-78
2024/02/05 07:28:15;;;;;;;11.20;4.17;;;9.50;99.90;;;;;;4194316;28;20258;-78
2024/02/05 07:30:19;;;;;;;12.07;4.33;;;9.50;99.90;;;;;;4205388;28;20231;-78
2024/02/05 07:32:21;;;;;;;13.77;4.20;;;9.50;99.90;;;;;;4212052;28;20213;-79
2024/02/05 07:34:24;;;;;;;9.83;4.20;;;9.60;99.90;;;;;;4211212;28;20290;-79
2024/02/05 07:36:29;;;;;;;14.47;4.30;;;9.90;99.90;;;;;;4191978;28;20308;-79
2024/02/05 07:38:30;;;;;;;10.40;4.33;;;9.60;99.90;;;;;;4205727;28;20215;-79
2024/02/05 07:40:32;;;;;;;14.60;4.10;;;9.60;99.90;;;;;;4194986;28;20221;-79
2024/02/05 07:42:34;;;;;;;14.37;5.40;;;9.60;99.90;;;;;;4192587;28;20233;-80
2024/02/05 07:44:35;;;;;;;14.63;4.37;;;9.50;99.90;;;;;;4196312;28;20308;-79
2024/02/05 07:46:40;;;;;;;13.60;4.70;;;9.60;99.90;;;;;;4208678;28;20189;-78
2024/02/05 07:48:42;;;;;;;13.17;4.60;;;9.60;99.90;;;;;;4206120;28;20292;-81
2024/02/05 07:50:45;;;;;;;16.77;4.17;;;9.60;99.90;;;;;;4195911;28;20240;-82
2024/02/05 07:52:47;;;;;;;13.00;4.10;;;9.60;99.90;;;;;;4195159;28;20630;-82
2024/02/05 07:54:48;;;;;;;12.53;4.17;;;9.60;99.90;;;;;;4212469;28;20676;-81
2024/02/05 07:56:51;;;;;;;14.63;4.60;;;9.60;99.90;;;;;;4205131;28;20222;-81
2024/02/05 07:58:53;;;;;;;11.93;4.07;;;9.70;99.90;;;;;;4208128;28;20246;-84
2024/02/05 08:00:54;;;;;;;15.53;4.97;;;9.70;99.90;;;;;;4199857;28;20317;-80
2024/02/05 08:02:56;;;;;;;11.30;5.20;;;9.70;99.90;;;;;;4196718;28;20700;-84
2024/02/05 08:04:58;;;;;;;10.90;4.00;;;9.70;99.90;;;;;;4209851;28;20235;-78
2024/02/05 08:07:04;;;;;;;10.33;3.73;;;9.70;99.90;;;;;;4209442;28;20223;-78
2024/02/05 08:09:06;;;;;;;14.10;3.80;;;9.80;99.90;;;;;;4192386;28;20617;-79
2024/02/05 08:11:09;;;;;;;13.00;3.80;;;9.80;99.90;;;;;;4188305;28;20226;-78
2024/02/05 08:13:11;;;;;;;12.27;3.87;;;9.80;99.90;;;;;;4211136;28;20316;-78
2024/02/05 08:15:13;;;;;;;10.67;3.53;;;9.80;99.90;;;;;;4207585;28;20213;-79
2024/02/05 08:17:16;;;;;;;15.97;3.77;;;9.80;99.90;;;;;;4191829;28;20237;-78
2024/02/05 08:19:18;;;;;;;19.97;4.17;;;9.80;99.90;;;;;;4194490;28;20209;-77
2024/02/05 08:21:23;;;;;;;14.37;4.33;;;9.80;99.90;;;;;;4206381;28;20790;-78
2024/02/05 08:23:26;;;;;;;18.77;3.80;;;9.90;99.90;;;;;;4208811;28;20197;-78
2024/02/05 08:25:29;;;;;;;19.33;4.10;;;9.90;99.90;;;;;;4207541;28;20287;-78
2024/02/05 08:27:33;;;;;;;24.97;4.57;;;9.90;99.90;;;;;;4189424;28;20235;-78
2024/02/05 08:29:35;;;;;;;18.23;3.90;;;9.90;99.90;;;;;;4210902;28;21652;-77
2024/02/05 08:31:37;;;;;;;15.73;3.97;;;10.00;99.90;;;;;;4194748;28;20206;-79
2024/02/05 08:33:39;;;;;;;16.43;4.27;;;10.00;99.90;;;;;;4194771;28;20201;-78
2024/02/05 08:35:41;;;;;;;12.20;3.73;;;10.00;99.90;;;;;;4208928;28;20200;-79
2024/02/05 08:37:45;;;;;;;11.27;4.13;;;10.00;99.90;;;;;;4208112;28;20221;-78
2024/02/05 08:39:49;;;;;;;14.80;3.70;;;10.00;99.90;;;;;;4191874;28;20244;-78
2024/02/05 08:41:51;;;;;;;12.67;4.50;;;10.00;99.90;;;;;;4204734;28;20593;-77
2024/02/05 08:43:56;;;;;;;14.07;4.07;;;10.00;99.90;;;;;;4211069;28;20236;-81
2024/02/05 08:46:00;;;;;;;20.03;4.40;;;10.00;99.90;;;;;;4195562;28;20815;-77
2024/02/05 08:48:02;;;;;;;15.77;3.90;;;10.10;99.90;;;;;;4212680;28;20208;-77
2024/02/05 08:50:04;;;;;;;13.77;3.93;;;10.00;99.90;;;;;;4213701;28;20225;-78
2024/02/05 08:52:06;;;;;;;20.10;4.00;;;10.00;99.90;;;;;;4219672;28;20204;-78
2024/02/05 08:54:09;;;;;;;13.57;3.80;;;10.00;99.90;;;;;;4210550;28;20277;-76
2024/02/05 08:56:11;;;;;;;14.53;4.33;;;10.00;99.90;;;;;;4217143;28;20208;-76
2024/02/05 08:58:13;;;;;;;16.67;4.03;;;10.00;99.90;;;;;;4210973;28;20484;-76
2024/02/05 09:00:17;;;;;;;20.57;4.20;;;10.00;99.90;;;;;;4194473;28;20225;-76
2024/02/05 09:02:19;;;;;;;17.53;3.97;;;10.10;99.90;;;;;;4210138;28;20680;-76
2024/02/05 09:04:26;;;;;;;14.30;3.53;;;10.00;99.90;;;;;;4204691;28;20232;-77
2024/02/05 09:06:28;;;;;;;18.00;4.03;;;10.10;99.90;;;;;;4206399;28;20657;-75
2024/02/05 09:08:36;;;;;;;17.33;4.13;;;10.10;99.90;;;;;;4203738;28;20209;-75
2024/02/05 09:10:38;;;;;;;14.40;3.93;;;10.10;99.90;;;;;;4206688;28;20220;-75
2024/02/05 09:12:41;;;;;;;17.33;4.50;;;10.10;99.90;;;;;;4207576;28;20276;-75
2024/02/05 09:14:42;;;;;;;15.30;3.70;;;10.20;99.90;;;;;;4199090;28;20806;-76
2024/02/05 09:16:44;;;;;;;12.37;3.50;;;10.10;99.90;;;;;;4207993;28;20270;-75
2024/02/05 09:18:48;;;;;;;19.63;4.37;;;10.10;99.90;;;;;;4212073;28;20288;-75
2024/02/05 09:20:50;;;;;;;18.50;4.47;;;10.20;99.90;;;;;;4213262;28;20756;-75
2024/02/05 09:22:53;;;;;;;14.80;3.93;;;10.10;99.90;;;;;;4207707;28;20209;-76
2024/02/05 09:24:55;;;;;;;15.83;3.50;;;10.20;99.90;;;;;;4210176;28;20276;-76
2024/02/05 09:26:57;;;;;;;17.07;3.40;;;10.20;99.90;;;;;;4197751;28;20241;-79
2024/02/05 09:29:01;;;;;;;17.73;3.90;;;10.20;99.90;;;;;;4195482;28;20572;-75
2024/02/05 09:31:11;;;;;;;22.27;3.73;;;10.20;99.90;;;;;;4210607;28;20324;-77
2024/02/05 09:35:37;;;;;;;20.20;4.00;;;10.30;99.90;;;;;;4192054;28;20230;-76
2024/02/05 09:37:39;;;;;;;16.40;3.13;;;10.30;99.90;;;;;;4214029;28;20629;-78
2024/02/05 09:39:41;;;;;;;14.97;3.83;;;10.20;99.90;;;;;;4194578;28;20325;-75
2024/02/05 09:41:44;;;;;;;14.83;3.80;;;10.30;99.90;;;;;;4210971;28;20200;-76
2024/02/05 09:43:48;;;;;;;19.23;3.93;;;10.30;99.90;;;;;;4212575;28;20209;-76
2024/02/05 09:45:53;;;;;;;15.80;3.13;;;10.30;99.90;;;;;;4212876;28;20204;-78
2024/02/05 09:47:57;;;;;;;16.57;3.37;;;10.30;99.90;;;;;;4197041;28;20208;-77
2024/02/05 09:50:00;;;;;;;14.93;3.70;;;10.30;99.90;;;;;;4194712;28;20228;-77
2024/02/05 09:52:04;;;;;;;13.37;3.60;;;10.40;99.90;;;;;;4205628;28;20197;-78
2024/02/05 09:54:07;;;;;;;11.40;3.00;;;10.40;99.90;;;;;;4194327;28;20296;-76
2024/02/05 09:56:10;;;;;;;15.93;3.23;;;10.40;99.90;;;;;;4210361;28;20239;-77
2024/02/05 09:58:13;;;;;;;12.13;3.00;;;10.40;99.90;;;;;;4213271;28;20224;-77
2024/02/05 10:00:15;;;;;;;24.63;3.47;;;10.40;99.90;;;;;;4209764;28;20218;-78
2024/02/05 10:02:20;;;;;;;13.47;3.20;;;10.50;99.90;;;;;;4196917;28;20297;-82
2024/02/05 10:04:24;;;;;;;12.47;2.93;;;10.50;99.90;;;;;;4214738;28;20208;-82
2024/02/05 10:06:33;;;;;;;15.43;3.00;;;10.50;99.90;;;;;;4216139;28;20209;-80
2024/02/05 10:08:36;;;;;;;20.70;3.57;;;10.60;99.90;;;;;;4215442;28;20201;-79
2024/02/05 10:10:40;;;;;;;9.90;2.60;;;10.60;99.90;;;;;;4201474;28;20782;-80
2024/02/05 10:12:47;;;;;;;21.17;3.63;;;10.70;99.90;;;;;;4202411;28;20209;-82
2024/02/05 10:14:49;;;;;;;14.17;3.17;;;10.70;99.90;;;;;;4214633;28;20234;-78
2024/02/05 10:16:52;;;;;;;14.43;2.80;;;10.70;99.90;;;;;;4217036;28;20225;-80
2024/02/05 10:18:55;;;;;;;15.40;3.20;;;10.80;99.90;;;;;;4209677;28;20247;-81
2024/02/05 10:20:57;;;;;;;21.07;3.83;;;10.80;99.90;;;;;;4211867;28;20233;-78
2024/02/05 10:23:00;;;;;;;14.37;2.60;;;10.80;99.90;;;;;;4212890;28;20200;-81
2024/02/05 10:25:03;;;;;;;18.90;3.57;;;10.90;99.90;;;;;;4208661;28;20205;-80
2024/02/05 10:27:05;;;;;;;12.67;3.47;;;10.90;99.90;;;;;;4195979;28;20216;-80
2024/02/05 10:29:08;;;;;;;11.80;3.10;;;10.90;99.90;;;;;;4213984;28;20269;-82
2024/02/05 10:31:11;;;;;;;18.80;3.50;;;10.90;99.90;;;;;;4192093;28;20324;-78
2024/02/05 10:33:16;;;;;;;22.20;3.87;;;10.90;99.90;;;;;;4214288;28;20258;-80
2024/02/05 10:35:20;;;;;;;12.20;3.10;;;10.90;99.90;;;;;;4213169;28;20225;-79
2024/02/05 10:37:23;;;;;;;15.33;3.13;;;11.00;99.90;;;;;;4200585;28;20206;-80
2024/02/05 10:39:31;;;;;;;11.00;3.27;;;11.00;99.90;;;;;;4208955;28;20203;-78
2024/02/05 10:41:38;;;;;;;17.70;3.53;;;11.00;99.90;;;;;;4210588;28;20673;-79
2024/02/05 10:43:43;;;;;;;18.43;3.60;;;11.00;99.90;;;;;;4191831;28;20233;-78
2024/02/05 10:45:45;;;;;;;11.53;3.77;;;11.00;99.90;;;;;;4207591;28;20210;-80